createdAt,value
2019-02-20T00:01:40.381Z,14.40
2019-02-20T00:04:09.822Z,13.40
2019-02-20T00:06:39.281Z,13.78
2019-02-20T00:09:09.174Z,15.30
2019-02-20T00:11:38.751Z,15.45
2019-02-20T00:14:08.241Z,13.85
2019-02-20T00:16:37.707Z,14.95
2019-02-20T00:19:07.175Z,15.45
2019-02-20T00:21:36.636Z,15.65
2019-02-20T00:24:06.060Z,16.40
2019-02-20T00:26:35.531Z,15.18
2019-02-20T00:29:04.958Z,15.88
2019-02-20T00:31:34.750Z,16.60
2019-02-20T00:34:04.179Z,15.50
2019-02-20T00:36:33.638Z,16.60
2019-02-20T00:39:04.618Z,16.80
2019-02-20T00:41:34.055Z,16.05
2019-02-20T00:44:15.204Z,16.35
2019-02-20T00:46:52.697Z,15.98
2019-02-20T00:49:27.331Z,16.67
2019-02-20T00:52:34.405Z,15.48
2019-02-20T00:55:03.816Z,16.82
2019-02-20T00:57:33.281Z,16.55
2019-02-20T01:00:02.729Z,16.45
2019-02-20T01:02:32.166Z,15.95
2019-02-20T01:05:01.586Z,18.95
2019-02-20T01:07:31.021Z,16.37
2019-02-20T01:10:00.512Z,16.37
2019-02-20T01:12:29.986Z,16.82
2019-02-20T01:14:59.450Z,17.32
2019-02-20T01:17:28.876Z,17.20
2019-02-20T01:19:58.295Z,16.80
2019-02-20T01:22:27.720Z,15.70
2019-02-20T01:24:57.161Z,15.53
2019-02-20T01:27:26.594Z,17.02
2019-02-20T01:29:56.031Z,15.88
2019-02-20T01:32:25.447Z,17.15
2019-02-20T01:34:54.878Z,16.55
2019-02-20T01:37:24.682Z,16.62
2019-02-20T01:39:54.108Z,16.42
2019-02-20T01:42:23.546Z,16.57
2019-02-20T01:44:52.989Z,16.97
2019-02-20T01:47:22.830Z,16.90
2019-02-20T01:49:52.273Z,16.70
2019-02-20T01:52:21.710Z,16.45
2019-02-20T01:54:51.181Z,15.50
2019-02-20T01:57:20.603Z,14.60
2019-02-20T01:59:50.028Z,15.20
2019-02-20T02:02:19.476Z,15.70
2019-02-20T02:04:48.933Z,14.55
2019-02-20T02:07:18.355Z,14.73
2019-02-20T02:09:47.798Z,14.07
2019-02-20T02:12:17.228Z,16.07
2019-02-20T02:14:46.718Z,15.13
2019-02-20T02:17:16.141Z,14.80
2019-02-20T02:19:45.575Z,14.80
2019-02-20T02:22:15.045Z,15.80
2019-02-20T02:24:44.778Z,14.90
2019-02-20T02:27:14.228Z,15.95
2019-02-20T02:29:43.664Z,15.95
2019-02-20T02:32:13.118Z,16.57
2019-02-20T02:34:42.559Z,15.95
2019-02-20T02:37:12.049Z,16.10
2019-02-20T02:39:41.479Z,15.95
2019-02-20T02:42:11.300Z,16.20
2019-02-20T02:44:40.727Z,16.67
2019-02-20T02:47:10.162Z,17.15
2019-02-20T02:49:39.924Z,16.52
2019-02-20T02:52:09.339Z,17.10
2019-02-20T02:54:38.843Z,16.62
2019-02-20T02:57:14.088Z,17.42
2019-02-20T02:59:43.529Z,16.23
2019-02-20T03:02:12.952Z,17.20
2019-02-20T03:04:42.409Z,17.50
2019-02-20T03:07:11.862Z,16.55
2019-02-20T03:09:41.292Z,16.32
2019-02-20T03:12:10.717Z,16.48
2019-02-20T03:14:40.185Z,18.37
2019-02-20T03:17:09.634Z,16.57
2019-02-20T03:19:39.062Z,17.57
2019-02-20T03:22:08.484Z,16.50
2019-02-20T03:24:37.913Z,15.90
2019-02-20T03:27:07.408Z,16.45
2019-02-20T03:29:36.867Z,17.92
2019-02-20T03:32:06.351Z,16.70
2019-02-20T03:34:36.095Z,18.55
2019-02-20T03:37:05.577Z,16.85
2019-02-20T03:39:37.345Z,17.23
2019-02-20T03:42:06.772Z,17.73
2019-02-20T03:44:36.199Z,17.42
2019-02-20T05:12:08.816Z,13.78
2019-02-20T05:14:38.425Z,13.38
2019-02-20T05:17:07.882Z,12.78
2019-02-20T05:19:37.330Z,12.53
2019-02-20T05:22:06.802Z,12.60
2019-02-20T05:24:36.274Z,11.78
2019-02-20T05:27:05.727Z,12.35
2019-02-20T05:29:35.176Z,10.85
2019-02-20T05:32:04.638Z,12.75
2019-02-20T05:34:34.127Z,11.80
2019-02-20T05:37:03.559Z,12.53
2019-02-20T05:39:33.318Z,12.10
2019-02-20T05:42:02.755Z,12.00
2019-02-20T05:44:32.204Z,12.13
2019-02-20T05:47:01.673Z,11.60
2019-02-20T05:49:31.464Z,11.97
2019-02-20T05:52:00.925Z,11.50
2019-02-20T05:54:34.734Z,12.40
2019-02-20T05:57:01.476Z,12.50
2019-02-20T05:59:30.910Z,12.85
2019-02-20T06:02:00.363Z,10.08
2019-02-20T06:04:29.831Z,11.95
2019-02-20T06:06:59.269Z,12.20
2019-02-20T06:09:28.712Z,12.10
2019-02-20T06:11:58.167Z,11.75
2019-02-20T06:14:27.618Z,13.30
2019-02-20T06:16:57.067Z,12.15
2019-02-20T06:19:26.892Z,13.13
2019-02-20T06:21:56.323Z,12.63
2019-02-20T06:24:25.769Z,13.28
2019-02-20T06:26:55.226Z,12.28
2019-02-20T06:29:24.715Z,12.33
2019-02-20T06:31:54.159Z,13.48
2019-02-20T06:34:23.644Z,11.88
2019-02-20T06:36:53.066Z,13.00
2019-02-20T06:39:22.577Z,13.43
2019-02-20T06:41:52.019Z,12.20
2019-02-20T06:44:21.458Z,12.75
2019-02-20T06:46:50.906Z,12.25
2019-02-20T06:49:20.417Z,12.25
2019-02-20T06:51:49.867Z,12.93
2019-02-20T06:54:19.714Z,11.48
2019-02-20T06:56:50.249Z,12.18
2019-02-20T06:59:19.699Z,12.63
2019-02-20T07:01:49.178Z,12.45
2019-02-20T07:04:18.616Z,12.25
2019-02-20T07:07:09.674Z,14.28
2019-02-20T07:10:26.436Z,13.10
2019-02-20T07:13:26.543Z,12.33
2019-02-20T07:16:49.028Z,13.10
2019-02-20T07:19:59.425Z,13.20
2019-02-20T07:23:13.683Z,12.82
2019-02-20T07:26:24.070Z,12.07
2019-02-20T07:29:16.902Z,12.82
2019-02-20T07:31:46.339Z,12.55
2019-02-20T07:34:15.970Z,12.33
2019-02-20T07:36:45.848Z,11.50
2019-02-20T07:39:15.302Z,13.25
2019-02-20T07:41:44.737Z,12.25
2019-02-20T07:44:14.210Z,10.82
2019-02-20T07:46:43.994Z,11.83
2019-02-20T07:49:13.428Z,11.65
2019-02-20T07:51:42.868Z,11.95
2019-02-20T07:54:12.399Z,11.85
2019-02-20T07:56:42.558Z,13.55
2019-02-20T07:59:12.003Z,12.82
2019-02-20T08:01:41.753Z,12.90
2019-02-20T08:04:11.246Z,12.37
2019-02-20T08:06:40.691Z,12.45
2019-02-20T08:09:10.143Z,13.58
2019-02-20T08:11:39.895Z,15.15
2019-02-20T08:14:09.336Z,12.23
2019-02-20T08:16:52.359Z,13.65
2019-02-20T08:19:21.820Z,13.48
2019-02-20T08:21:51.430Z,14.40
2019-02-20T08:24:20.871Z,12.75
2019-02-20T08:26:50.326Z,13.88
2019-02-20T08:29:19.834Z,13.10
2019-02-20T08:31:49.325Z,13.65
2019-02-20T08:34:18.824Z,13.35
2019-02-20T08:36:48.286Z,14.03
2019-02-20T08:39:17.800Z,13.75
2019-02-20T08:41:47.272Z,12.15
2019-02-20T08:44:17.045Z,13.48
2019-02-20T08:46:46.486Z,12.13
2019-02-20T08:49:15.983Z,12.70
2019-02-20T08:51:45.440Z,11.90
2019-02-20T08:54:14.949Z,12.53
2019-02-20T08:56:44.444Z,12.33
2019-02-20T08:59:27.505Z,11.40
2019-02-20T09:01:57.161Z,12.53
2019-02-20T09:04:26.681Z,11.00
2019-02-20T09:06:56.131Z,12.00
2019-02-20T09:09:25.669Z,11.93
2019-02-20T09:11:55.120Z,12.80
2019-02-20T09:14:24.939Z,12.90
2019-02-20T09:16:54.463Z,12.70
2019-02-20T09:19:23.969Z,11.45
2019-02-20T09:21:53.967Z,12.55
2019-02-20T09:25:04.454Z,14.43
2019-02-20T09:27:34.285Z,12.73
2019-02-20T09:30:04.203Z,13.50
2019-02-20T09:32:33.706Z,13.30
2019-02-20T09:35:03.152Z,17.00
2019-02-20T09:37:32.638Z,14.03
2019-02-20T09:40:02.179Z,13.85
2019-02-20T09:42:31.630Z,14.70
2019-02-20T09:45:01.114Z,12.07
2019-02-20T09:47:31.218Z,13.75
2019-02-20T09:50:00.748Z,12.43
2019-02-20T09:52:30.193Z,14.45
2019-02-20T09:54:59.665Z,13.95
2019-02-20T09:57:29.166Z,12.40
2019-02-20T09:59:58.692Z,12.58
2019-02-20T10:02:28.205Z,14.58
2019-02-20T10:04:57.684Z,14.68
2019-02-20T10:07:27.188Z,13.43
2019-02-20T10:09:56.731Z,14.18
2019-02-20T10:12:26.189Z,15.48
2019-02-20T10:14:55.679Z,13.93
2019-02-20T10:17:25.228Z,12.03
2019-02-20T10:20:08.990Z,14.03
2019-02-20T10:22:38.478Z,11.95
2019-02-20T10:25:08.170Z,11.00
2019-02-20T10:27:37.654Z,12.73
2019-02-20T10:30:10.145Z,12.07
2019-02-20T10:32:39.631Z,12.23
2019-02-20T10:35:09.345Z,12.82
2019-02-20T10:37:38.847Z,13.45
2019-02-20T10:40:08.543Z,12.20
2019-02-20T10:42:38.049Z,11.70
2019-02-20T10:45:07.920Z,13.75
2019-02-20T10:47:37.450Z,13.45
2019-02-20T10:50:07.272Z,11.95
2019-02-20T10:52:36.828Z,12.13
2019-02-20T10:55:06.757Z,11.43
2019-02-20T10:57:36.282Z,11.18
2019-02-20T11:00:08.748Z,11.63
2019-02-20T11:02:38.253Z,11.73
2019-02-20T11:05:07.744Z,10.90
2019-02-20T11:07:37.195Z,11.10
2019-02-20T11:10:06.886Z,11.28
2019-02-20T11:12:36.373Z,10.20
2019-02-20T11:15:06.428Z,10.93
2019-02-20T11:17:37.184Z,10.40
2019-02-20T11:20:07.319Z,11.88
2019-02-20T11:22:37.056Z,11.95
2019-02-20T11:25:07.532Z,10.65
2019-02-20T11:27:37.040Z,11.38
2019-02-20T11:30:08.544Z,13.48
2019-02-20T11:32:37.992Z,12.73
2019-02-20T11:35:08.273Z,12.20
2019-02-20T11:37:37.760Z,13.15
2019-02-20T11:40:07.974Z,10.68
2019-02-20T11:42:37.410Z,11.70
2019-02-20T11:45:07.821Z,11.60
2019-02-20T11:47:37.633Z,11.68
2019-02-20T11:50:07.881Z,10.82
2019-02-20T11:52:38.535Z,12.00
2019-02-20T11:55:08.358Z,11.40
2019-02-20T11:57:37.787Z,11.18
2019-02-20T12:00:09.188Z,12.00
2019-02-20T12:02:38.629Z,12.10
2019-02-20T12:05:08.181Z,11.35
2019-02-20T12:07:37.682Z,11.48
2019-02-20T12:10:08.226Z,11.38
2019-02-20T12:12:37.659Z,10.80
2019-02-20T12:15:07.726Z,11.83
2019-02-20T12:17:37.434Z,11.55
2019-02-20T12:20:07.050Z,10.95
2019-02-20T12:22:36.554Z,10.45
2019-02-20T12:25:06.186Z,10.13
2019-02-20T12:27:35.653Z,11.15
2019-02-20T12:30:06.243Z,9.90
2019-02-20T12:32:35.701Z,11.43
2019-02-20T12:35:05.621Z,9.93
2019-02-20T12:37:35.138Z,9.73
2019-02-20T12:40:05.151Z,9.40
2019-02-20T12:42:34.663Z,9.55
2019-02-20T12:45:04.216Z,11.20
2019-02-20T12:47:33.739Z,11.25
2019-02-20T12:50:03.222Z,12.37
2019-02-20T12:52:32.702Z,11.28
2019-02-20T12:55:02.153Z,13.68
2019-02-20T12:57:31.892Z,10.55
2019-02-20T13:00:01.490Z,9.43
2019-02-20T13:02:30.945Z,9.65
2019-02-20T13:05:00.581Z,8.53
2019-02-20T13:07:30.412Z,10.28
2019-02-20T13:10:02.766Z,10.15
2019-02-20T13:12:32.539Z,9.50
2019-02-20T13:15:02.027Z,8.90
2019-02-20T13:17:31.802Z,8.68
2019-02-20T13:20:01.237Z,8.63
2019-02-20T13:22:30.689Z,8.33
2019-02-20T13:25:00.554Z,8.20
2019-02-20T13:27:30.406Z,8.63
2019-02-20T13:30:00.822Z,8.38
2019-02-20T13:32:30.601Z,7.90
2019-02-20T13:35:00.514Z,7.70
2019-02-20T13:37:29.998Z,7.90
2019-02-20T13:39:59.822Z,7.10
2019-02-20T13:42:29.384Z,6.72
2019-02-20T13:44:59.378Z,7.62
2019-02-20T13:47:28.862Z,7.53
2019-02-20T13:49:58.289Z,7.05
2019-02-20T13:52:27.846Z,6.85
2019-02-20T13:54:57.726Z,6.78
2019-02-20T13:57:27.186Z,7.30
2019-02-20T13:59:56.975Z,7.45
2019-02-20T14:02:26.402Z,6.65
2019-02-20T14:04:55.846Z,6.53
2019-02-20T14:07:25.304Z,7.25
2019-02-20T14:09:54.751Z,6.62
2019-02-20T14:12:24.200Z,7.65
2019-02-20T14:14:53.628Z,7.15
2019-02-20T14:17:26.591Z,6.85
2019-02-20T14:19:55.178Z,6.80
2019-02-20T14:22:26.164Z,7.72
2019-02-20T14:24:56.099Z,7.28
2019-02-20T14:27:26.388Z,6.95
2019-02-20T14:29:56.034Z,8.00
2019-02-20T14:32:26.225Z,7.62
2019-02-20T14:34:56.293Z,7.70
2019-02-20T14:37:26.722Z,8.33
2019-02-20T14:39:57.384Z,7.42
2019-02-20T14:42:26.967Z,7.62
2019-02-20T14:44:57.933Z,7.70
2019-02-20T14:47:31.437Z,7.47
2019-02-20T14:50:01.331Z,7.35
2019-02-20T14:52:31.776Z,7.28
2019-02-20T14:55:01.403Z,7.40
2019-02-20T14:57:31.670Z,5.92
2019-02-20T15:00:04.438Z,6.47
2019-02-20T15:02:33.967Z,6.72
2019-02-20T15:05:05.201Z,6.40
2019-02-20T15:07:36.897Z,6.37
2019-02-20T15:10:13.936Z,6.15
2019-02-20T15:13:03.251Z,6.00
2019-02-20T15:15:33.320Z,5.80
2019-02-20T15:18:04.183Z,6.08
2019-02-20T15:20:35.589Z,5.40
2019-02-20T15:23:07.185Z,4.90
2019-02-20T15:25:36.999Z,5.17
2019-02-20T15:28:06.748Z,5.62
2019-02-20T15:30:37.173Z,6.10
2019-02-20T15:33:06.861Z,5.20
2019-02-20T15:35:38.270Z,6.55
2019-02-20T15:38:08.261Z,6.67
2019-02-20T15:40:46.758Z,5.17
2019-02-20T15:43:23.482Z,5.60
2019-02-20T15:45:54.483Z,5.65
2019-02-20T15:48:24.647Z,5.55
2019-02-20T15:50:54.320Z,6.10
2019-02-20T15:53:25.197Z,5.95
2019-02-20T15:55:55.214Z,6.67
2019-02-20T15:58:24.708Z,5.65
2019-02-20T16:00:54.507Z,6.17
2019-02-20T16:03:23.967Z,6.67
2019-02-20T16:05:53.489Z,5.80
2019-02-20T16:08:22.987Z,6.22
2019-02-20T16:10:52.861Z,6.92
2019-02-20T16:13:22.589Z,6.17
2019-02-20T16:15:52.647Z,6.25
2019-02-20T16:18:22.275Z,6.70
2019-02-20T16:20:52.222Z,6.62
2019-02-20T16:23:22.612Z,8.58
2019-02-20T16:25:53.556Z,8.90
2019-02-20T16:28:27.870Z,9.10
2019-02-20T16:30:57.486Z,9.35
2019-02-20T16:33:28.255Z,8.50
2019-02-20T16:35:57.795Z,7.42
2019-02-20T16:38:27.809Z,7.70
2019-02-20T16:40:58.948Z,8.00
2019-02-20T16:43:28.932Z,7.33
2019-02-20T16:45:58.774Z,6.87
2019-02-20T16:48:28.251Z,8.15
2019-02-20T16:50:58.044Z,8.63
2019-02-20T16:53:27.614Z,8.38
2019-02-20T16:55:57.687Z,9.58
2019-02-20T16:58:27.116Z,12.05
2019-02-20T17:00:56.668Z,12.30
2019-02-20T17:03:26.677Z,12.23
2019-02-20T17:05:56.722Z,14.58
2019-02-20T17:08:26.345Z,20.40
2019-02-20T17:10:56.172Z,21.75
2019-02-20T17:13:25.644Z,19.40
2019-02-20T17:15:55.866Z,20.55
2019-02-20T17:18:25.387Z,17.52
2019-02-20T17:20:55.085Z,16.77
2019-02-20T17:27:05.904Z,15.08
2019-02-20T17:29:35.342Z,16.45
2019-02-20T17:32:04.794Z,16.42
2019-02-20T17:34:34.245Z,14.83
2019-02-20T17:37:03.753Z,18.70
2019-02-20T17:39:33.189Z,16.62
2019-02-20T17:42:03.324Z,21.45
2019-02-20T17:44:32.883Z,22.15
2019-02-20T17:47:02.355Z,20.70
2019-02-20T17:49:33.373Z,18.20
2019-02-20T17:52:02.827Z,18.48
2019-02-20T17:54:32.658Z,15.90
2019-02-20T17:57:02.158Z,14.45
2019-02-20T17:59:32.012Z,16.10
2019-02-20T18:02:01.535Z,20.57
2019-02-20T18:04:31.035Z,18.75
2019-02-20T18:07:00.544Z,16.97
2019-02-20T18:09:30.028Z,15.10
2019-02-20T18:11:59.541Z,13.18
2019-02-20T18:14:29.196Z,11.97
2019-02-20T18:16:59.390Z,11.65
2019-02-20T18:19:29.717Z,11.83
2019-02-20T18:22:00.178Z,10.95
2019-02-20T18:24:29.683Z,12.43
2019-02-20T18:26:59.266Z,18.82
2019-02-20T18:29:28.956Z,31.48
2019-02-20T18:31:58.603Z,32.25
2019-02-20T18:34:28.382Z,31.68
2019-02-20T18:36:57.915Z,33.80
2019-02-20T18:39:27.776Z,29.15
2019-02-20T18:41:57.254Z,29.80
2019-02-20T18:44:26.787Z,26.30
2019-02-20T18:46:56.709Z,25.10
2019-02-20T18:49:26.260Z,26.95
2019-02-20T18:51:55.743Z,26.30
2019-02-20T18:54:26.041Z,24.65
2019-02-20T18:56:55.554Z,21.02
2019-02-20T18:59:25.288Z,18.55
2019-02-20T19:01:54.773Z,16.27
2019-02-20T19:04:24.313Z,15.03
2019-02-20T19:06:54.265Z,14.85
2019-02-20T19:09:29.160Z,14.55
2019-02-20T19:12:55.361Z,14.55
2019-02-20T19:15:54.896Z,11.90
2019-02-20T19:19:07.030Z,12.15
2019-02-20T19:22:19.669Z,11.57
2019-02-20T19:25:17.537Z,12.75
2019-02-20T19:27:58.433Z,11.30
2019-02-20T19:31:14.903Z,11.88
2019-02-20T19:34:28.483Z,13.30
2019-02-20T19:37:44.053Z,14.98
2019-02-20T19:41:03.419Z,14.05
2019-02-20T19:44:01.793Z,14.00
2019-02-20T19:47:04.089Z,14.25
2019-02-20T19:49:54.601Z,14.05
2019-02-20T19:52:33.521Z,14.50
2019-02-20T19:55:17.756Z,16.45
2019-02-20T19:58:32.980Z,15.38
2019-02-20T20:01:37.383Z,16.23
2019-02-20T20:04:22.593Z,16.95
2019-02-20T20:07:21.388Z,16.87
2019-02-20T20:10:15.824Z,14.07
2019-02-20T20:13:26.998Z,15.05
2019-02-20T20:16:41.602Z,16.77
2019-02-20T20:19:56.303Z,14.28
2019-02-20T20:22:54.231Z,15.48
2019-02-20T20:25:52.286Z,15.55
2019-02-20T20:29:05.964Z,13.55
2019-02-20T20:31:58.280Z,17.42
2019-02-20T20:35:00.495Z,18.73
2019-02-20T20:37:47.772Z,16.67
2019-02-20T20:40:36.574Z,16.00
2019-02-20T20:43:37.455Z,14.43
2019-02-20T20:46:38.810Z,13.83
2019-02-20T20:49:52.093Z,14.87
2019-02-20T20:53:05.892Z,13.70
2019-02-20T20:55:52.485Z,13.53
2019-02-20T20:59:17.197Z,14.05
2019-02-20T21:02:09.395Z,14.35
2019-02-20T21:05:20.054Z,15.88
2019-02-20T21:07:59.888Z,16.55
2019-02-20T21:11:05.297Z,15.65
2019-02-20T21:14:24.198Z,13.60
2019-02-20T21:17:46.684Z,13.95
2019-02-20T21:21:00.078Z,13.68
2019-02-20T21:24:25.559Z,14.43
2019-02-20T21:27:44.611Z,12.90
2019-02-20T21:31:00.902Z,14.00
2019-02-20T21:34:26.070Z,12.95
2019-02-20T21:37:33.995Z,12.60
2019-02-20T21:40:10.413Z,13.38
2019-02-20T21:42:54.888Z,12.23
2019-02-20T21:45:54.121Z,12.05
2019-02-20T21:49:23.250Z,12.00
2019-02-20T21:52:33.743Z,12.33
2019-02-20T21:55:20.558Z,11.40
2019-02-20T21:58:33.027Z,12.03
2019-02-20T22:01:45.193Z,11.45
2019-02-20T22:04:44.068Z,12.78
2019-02-20T22:07:53.036Z,11.40
2019-02-20T22:10:59.480Z,12.00
2019-02-20T22:13:58.992Z,12.90
2019-02-20T22:17:00.621Z,12.30
2019-02-20T22:19:44.471Z,12.25
2019-02-20T22:23:09.949Z,11.80
2019-02-20T22:25:55.558Z,11.53
2019-02-20T22:29:11.735Z,11.73
2019-02-20T22:32:21.528Z,13.25
2019-02-20T22:35:25.534Z,12.60
2019-02-20T22:38:42.913Z,12.43
2019-02-20T22:41:39.071Z,12.50
2019-02-20T22:44:42.712Z,13.60
2019-02-20T22:48:03.020Z,12.90
2019-02-20T22:51:06.400Z,13.00
2019-02-20T22:54:16.468Z,13.32
2019-02-20T22:57:27.380Z,13.32
2019-02-20T23:00:44.654Z,12.15
2019-02-20T23:03:26.928Z,13.18
2019-02-20T23:06:49.590Z,12.10
2019-02-20T23:09:41.298Z,12.80
2019-02-20T23:12:41.941Z,13.13
2019-02-20T23:15:11.379Z,12.88
2019-02-20T23:17:40.865Z,13.78
2019-02-20T23:20:10.354Z,12.78
2019-02-20T23:22:39.794Z,13.68
2019-02-20T23:25:09.285Z,13.28
2019-02-20T23:27:38.795Z,14.68
2019-02-20T23:30:13.019Z,14.45
2019-02-20T23:32:43.127Z,13.38
2019-02-20T23:35:11.857Z,13.85
2019-02-20T23:37:41.324Z,14.35
2019-02-20T23:40:10.859Z,14.95
2019-02-20T23:42:40.382Z,13.58
2019-02-20T23:45:10.621Z,14.45
2019-02-20T23:47:40.087Z,14.65
2019-02-20T23:50:09.683Z,14.35
2019-02-20T23:52:39.183Z,15.15
2019-02-20T23:55:08.720Z,17.32
2019-02-20T23:57:38.455Z,15.15
